Time;durP1;ratioP1;P1;durP2;ratioP2;P2;SDS_P1;SDS_P2;PMS_P1;PMS_P2;Temp;Humidity;BMP_temperature;BMP_pressure;BME280_temperature;BME280_humidity;BME280_pressure;Samples;Min_cycle;Max_cycle;Signal;HPM_P1;HPM_P2
2023/07/04 00:00:24;;;;;;;9.63;3.93;;;;;;;11.50;100.00;100396.78;7391179;19;20415;-44
2023/07/04 00:02:55;;;;;;;11.90;4.03;;;;;;;11.49;100.00;100390.75;7365633;19;20426;-42
2023/07/04 00:05:25;;;;;;;7.10;3.90;;;;;;;11.51;100.00;100377.84;7388608;19;20818;-43
2023/07/04 00:07:55;;;;;;;10.40;4.40;;;;;;;11.51;100.00;100372.69;7367290;19;20458;-42
2023/07/04 00:10:25;;;;;;;9.60;4.27;;;;;;;11.52;100.00;100369.28;7392475;19;20435;-43
2023/07/04 00:12:55;;;;;;;11.27;3.30;;;;;;;11.48;100.00;100358.84;7367871;19;20963;-43
2023/07/04 00:15:27;;;;;;;7.77;3.00;;;;;;;11.46;100.00;100360.53;7391957;19;20468;-42
2023/07/04 00:17:56;;;;;;;8.43;3.63;;;;;;;11.45;100.00;100339.81;7366597;19;20446;-43
2023/07/04 00:20:27;;;;;;;5.60;2.80;;;;;;;11.42;100.00;100352.59;7392249;19;20944;-43
2023/07/04 00:22:59;;;;;;;8.40;3.27;;;;;;;11.42;100.00;100358.66;7367523;19;20412;-44
2023/07/04 00:25:29;;;;;;;8.30;3.23;;;;;;;11.44;100.00;100343.22;7391987;19;20462;-44
2023/07/04 00:27:58;;;;;;;10.80;3.43;;;;;;;11.45;100.00;100338.06;7367023;19;20498;-44
2023/07/04 00:30:30;;;;;;;10.37;3.40;;;;;;;11.47;100.00;100336.44;7392330;19;20417;-44
2023/07/04 00:33:00;;;;;;;10.17;2.90;;;;;;;11.50;100.00;100312.41;7365119;19;20405;-43
2023/07/04 00:35:30;;;;;;;7.87;3.60;;;;;;;11.48;100.00;100314.06;7391775;19;20468;-43
2023/07/04 00:37:59;;;;;;;7.53;3.17;;;;;;;11.49;100.00;100333.91;7367583;19;20433;-43
2023/07/04 00:40:30;;;;;;;6.47;4.30;;;;;;;11.47;100.00;100339.03;7392663;19;20498;-44
2023/07/04 00:43:03;;;;;;;5.03;2.00;;;;;;;11.46;100.00;100339.84;7368715;19;20768;-44
2023/07/04 00:45:42;;;;;;;10.70;2.70;;;;;;;11.52;100.00;100333.09;7391855;19;20449;-41
2023/07/04 00:48:15;;;;;;;10.80;3.73;;;;;;;11.55;100.00;100346.13;7367683;19;20524;-44
2023/07/04 00:50:46;;;;;;;14.03;3.10;;;;;;;11.58;100.00;100329.00;7392264;19;20477;-43
2023/07/04 00:53:17;;;;;;;9.00;2.93;;;;;;;11.50;100.00;100348.56;7367150;19;20882;-40
2023/07/04 00:55:49;;;;;;;7.63;4.27;;;;;;;11.50;100.00;100350.28;7387181;19;20790;-43
2023/07/04 00:58:20;;;;;;;10.23;4.10;;;;;;;11.56;100.00;100355.63;7363428;19;20877;-43
2023/07/04 01:00:52;;;;;;;19.27;6.10;;;;;;;11.53;100.00;100353.81;7393548;19;20408;-43
2023/07/04 01:03:24;;;;;;;17.00;5.97;;;;;;;11.53;100.00;100360.72;7364832;19;20435;-44
2023/07/04 01:06:00;;;;;;;7.37;3.67;;;;;;;11.50;100.00;100358.91;7392257;19;20447;-44
2023/07/04 01:08:34;;;;;;;11.20;4.20;;;;;;;11.59;100.00;100355.75;7365735;19;20999;-43
2023/07/04 01:11:06;;;;;;;10.10;3.33;;;;;;;11.52;100.00;100365.00;7392376;19;20949;-44
2023/07/04 01:13:38;;;;;;;13.83;5.20;;;;;;;11.50;100.00;100360.59;7364367;19;20430;-43
2023/07/04 01:16:12;;;;;;;15.87;5.10;;;;;;;11.46;100.00;100370.84;7390719;19;20459;-43
2023/07/04 01:18:47;;;;;;;14.93;5.37;;;;;;;11.48;100.00;100364.03;7363739;19;20985;-43
2023/07/04 01:21:18;;;;;;;5.37;2.40;;;;;;;11.47;100.00;100367.44;7389578;19;20941;-43
2023/07/04 01:23:55;;;;;;;11.93;5.40;;;;;;;11.52;100.00;100365.00;7360067;19;20490;-41
2023/07/04 01:26:31;;;;;;;7.03;3.13;;;;;;;11.51;100.00;100378.75;7390109;19;20458;-43
2023/07/04 01:29:02;;;;;;;4.90;2.50;;;;;;;11.52;100.00;100369.28;7365395;19;20453;-43
2023/07/04 01:31:35;;;;;;;8.47;3.30;;;;;;;11.55;100.00;100379.72;7389376;19;20422;-42
2023/07/04 01:34:06;;;;;;;7.13;3.03;;;;;;;11.56;100.00;100381.47;7363827;19;20787;-41
2023/07/04 01:36:38;;;;;;;11.83;3.00;;;;;;;11.55;100.00;100380.59;7389306;19;20482;-42
2023/07/04 01:39:08;;;;;;;11.40;2.50;;;;;;;11.56;100.00;100386.63;7363340;19;21118;-43
2023/07/04 01:41:40;;;;;;;5.77;2.20;;;;;;;11.50;100.00;100401.94;7390265;19;20454;-43
2023/07/04 01:44:10;;;;;;;8.40;3.37;;;;;;;11.54;100.00;100399.50;7366248;19;20517;-41
2023/07/04 01:46:40;;;;;;;8.37;2.33;;;;;;;11.48;100.00;100407.03;7396825;19;20462;-43
2023/07/04 01:49:10;;;;;;;7.70;2.80;;;;;;;11.47;100.00;100413.03;7372721;19;20437;-43
2023/07/04 01:51:42;;;;;;;7.50;3.20;;;;;;;11.47;100.00;100420.81;7397251;19;20478;-43
2023/07/04 01:54:16;;;;;;;8.57;3.00;;;;;;;11.47;100.00;100419.09;7372104;19;21093;-43
2023/07/04 01:56:52;;;;;;;7.17;2.70;;;;;;;11.37;100.00;100411.88;7397872;19;20467;-42
2023/07/04 01:59:22;;;;;;;9.87;2.83;;;;;;;11.40;100.00;100422.31;7371621;19;20446;-43
2023/07/04 02:02:10;;;;;;;4.93;2.30;;;;;;;11.34;100.00;100427.28;7400341;19;20436;-39
2023/07/04 02:04:40;;;;;;;4.93;2.70;;;;;;;11.34;100.00;100428.13;7369747;19;20819;-41
2023/07/04 02:07:11;;;;;;;6.00;2.57;;;;;;;11.35;100.00;100426.44;7373847;19;20431;-45
2023/07/04 02:09:40;;;;;;;9.07;3.00;;;;;;;11.31;100.00;100427.16;7396590;19;20410;-42
2023/07/04 02:12:13;;;;;;;5.30;2.10;;;;;;;11.28;100.00;100434.81;7373939;19;20471;-43
2023/07/04 02:14:42;;;;;;;13.03;2.60;;;;;;;11.30;100.00;100433.16;7396272;19;21051;-43
2023/07/04 02:17:12;;;;;;;6.33;2.40;;;;;;;11.25;100.00;100433.00;7373588;19;21125;-43
2023/07/04 02:19:42;;;;;;;5.97;2.53;;;;;;;11.17;100.00;100435.31;7394244;19;21323;-43
2023/07/04 02:22:11;;;;;;;10.23;2.50;;;;;;;11.12;100.00;100429.13;7373978;19;20422;-43
2023/07/04 02:24:41;;;;;;;5.67;1.80;;;;;;;11.09;100.00;100426.44;7395462;19;20507;-43
2023/07/04 02:27:13;;;;;;;5.13;2.07;;;;;;;11.05;100.00;100432.31;7373798;19;20401;-43
2023/07/04 02:29:42;;;;;;;9.60;2.43;;;;;;;10.99;100.00;100426.94;7394020;19;20849;-43
2023/07/04 02:32:12;;;;;;;7.80;2.87;;;;;;;10.93;100.00;100423.31;7373840;19;20401;-43
2023/07/04 02:34:42;;;;;;;5.23;2.50;;;;;;;10.92;100.00;100424.16;7394439;19;20495;-43
2023/07/04 02:37:12;;;;;;;9.07;2.50;;;;;;;10.87;100.00;100404.19;7372635;19;20439;-42
2023/07/04 02:39:42;;;;;;;3.87;1.93;;;;;;;10.83;100.00;100402.31;7394454;19;20421;-43
2023/07/04 02:42:14;;;;;;;6.33;2.20;;;;;;;10.76;100.00;100396.03;7375932;19;21476;-43
2023/07/04 02:44:44;;;;;;;11.87;2.83;;;;;;;10.74;100.00;100400.28;7396574;19;20502;-43
2023/07/04 02:47:14;;;;;;;9.50;2.30;;;;;;;10.67;100.00;100407.78;7374700;19;21059;-43
2023/07/04 02:49:44;;;;;;;6.00;2.80;;;;;;;10.67;100.00;100400.06;7394724;19;20484;-44
2023/07/04 02:52:13;;;;;;;4.63;2.07;;;;;;;10.63;100.00;100408.53;7372222;19;20420;-44
2023/07/04 02:54:43;;;;;;;9.23;2.20;;;;;;;10.62;100.00;100409.34;7393697;19;20985;-43
2023/07/04 02:57:18;;;;;;;10.20;3.10;;;;;;;10.58;100.00;100409.16;7370555;19;20413;-43
2023/07/04 02:59:47;;;;;;;6.90;2.50;;;;;;;10.57;100.00;100410.88;7394622;19;20416;-42
2023/07/04 03:02:17;;;;;;;4.70;2.20;;;;;;;10.53;100.00;100416.75;7370334;19;20512;-43
2023/07/04 03:04:51;;;;;;;9.40;2.53;;;;;;;10.51;100.00;100411.53;7394500;19;20436;-42
2023/07/04 03:07:21;;;;;;;6.10;2.43;;;;;;;10.50;100.00;100420.09;7372737;19;20467;-42
2023/07/04 03:09:51;;;;;;;11.43;2.33;;;;;;;10.47;100.00;100429.41;7397038;19;20765;-43
2023/07/04 03:12:23;;;;;;;7.07;2.50;;;;;;;10.46;100.00;100438.00;7369565;19;21103;-43
2023/07/04 03:14:52;;;;;;;4.33;2.20;;;;;;;10.48;100.00;100426.00;7395435;19;20450;-43
2023/07/04 03:17:25;;;;;;;4.10;2.40;;;;;;;10.47;100.00;100434.56;7369957;19;20421;-42
2023/07/04 03:19:55;;;;;;;5.63;2.10;;;;;;;10.46;100.00;100440.56;7394219;19;20431;-42
2023/07/04 03:22:24;;;;;;;7.83;2.27;;;;;;;10.43;100.00;100443.00;7369634;19;20816;-43
2023/07/04 03:24:54;;;;;;;10.50;3.13;;;;;;;10.43;100.00;100445.59;7395218;19;20432;-43
2023/07/04 03:27:26;;;;;;;8.47;2.30;;;;;;;10.44;100.00;100453.41;7370005;19;20398;-42
2023/07/04 03:29:56;;;;;;;4.97;2.10;;;;;;;10.42;100.00;100446.38;7394480;19;20816;-44
2023/07/04 03:32:25;;;;;;;8.40;2.13;;;;;;;10.46;100.00;100449.16;7370952;19;20392;-43
2023/07/04 03:34:55;;;;;;;5.33;2.40;;;;;;;10.43;100.00;100453.34;7392668;19;21041;-40
2023/07/04 03:37:25;;;;;;;7.83;3.10;;;;;;;10.43;100.00;100449.06;7369123;19;20983;-44
2023/07/04 03:39:54;;;;;;;7.23;3.10;;;;;;;10.44;100.00;100452.50;7393488;19;20404;-43
2023/07/04 03:42:27;;;;;;;5.30;2.60;;;;;;;10.48;100.00;100456.97;7370549;19;20433;-43
2023/07/04 03:44:57;;;;;;;8.60;2.70;;;;;;;10.47;100.00;100460.38;7394430;19;20789;-43
2023/07/04 03:47:26;;;;;;;11.97;2.50;;;;;;;10.51;100.00;100457.97;7369264;19;20405;-43
2023/07/04 03:49:56;;;;;;;10.10;2.90;;;;;;;10.52;100.00;100449.38;7394176;19;20418;-43
2023/07/04 03:52:26;;;;;;;8.40;2.60;;;;;;;10.56;100.00;100458.13;7368979;19;20404;-44
2023/07/04 03:54:55;;;;;;;7.93;2.93;;;;;;;10.64;100.00;100463.56;7392958;19;20433;-43
2023/07/04 03:57:28;;;;;;;4.40;2.70;;;;;;;10.59;100.00;100471.16;7369099;19;20407;-42
2023/07/04 03:59:57;;;;;;;10.53;3.50;;;;;;;10.65;100.00;100465.31;7393316;19;20402;-43
2023/07/04 04:02:27;;;;;;;5.07;2.73;;;;;;;10.66;100.00;100473.13;7368900;19;20414;-43
2023/07/04 04:04:57;;;;;;;7.43;3.00;;;;;;;10.73;100.00;100468.19;7392266;19;20443;-44
2023/07/04 04:07:27;;;;;;;3.40;1.63;;;;;;;10.71;100.00;100469.84;7368445;19;20398;-42
2023/07/04 04:09:56;;;;;;;6.80;3.30;;;;;;;10.82;100.00;100465.94;7393882;19;20812;-43
2023/07/04 04:12:28;;;;;;;6.90;3.17;;;;;;;10.86;100.00;100472.13;7369128;19;20473;-43
2023/07/04 04:14:58;;;;;;;11.10;3.17;;;;;;;10.84;100.00;100472.06;7392330;19;20460;-43
2023/07/04 04:17:28;;;;;;;10.40;2.60;;;;;;;10.92;100.00;100473.19;7367008;19;20415;-43
2023/07/04 04:19:57;;;;;;;8.30;2.90;;;;;;;10.99;100.00;100481.16;7392307;19;20418;-43
2023/07/04 04:22:27;;;;;;;5.43;2.80;;;;;;;11.01;100.00;100476.91;7368017;19;20541;-43
2023/07/04 04:24:57;;;;;;;9.07;3.80;;;;;;;11.11;100.00;100486.75;7392534;19;20525;-44
2023/07/04 04:27:30;;;;;;;15.93;3.83;;;;;;;11.16;100.00;100490.38;7369394;19;20413;-43
2023/07/04 04:30:00;;;;;;;7.90;3.10;;;;;;;11.17;100.00;100497.28;7392878;19;20503;-43
2023/07/04 04:32:33;;;;;;;7.20;3.23;;;;;;;11.23;100.00;100500.94;7369078;19;20435;-43
2023/07/04 04:35:03;;;;;;;6.67;3.37;;;;;;;11.25;100.00;100505.31;7392705;19;20458;-44
2023/07/04 04:37:34;;;;;;;11.30;2.70;;;;;;;11.28;100.00;100505.41;7367504;19;20427;-43
2023/07/04 04:40:04;;;;;;;10.47;3.00;;;;;;;11.30;100.00;100519.28;7393481;19;20419;-42
2023/07/04 04:42:37;;;;;;;12.17;3.37;;;;;;;11.32;100.00;100519.31;7367643;19;20434;-43
2023/07/04 04:45:08;;;;;;;7.87;3.23;;;;;;;11.29;100.00;100525.25;7391753;19;20998;-43
2023/07/04 04:47:39;;;;;;;10.83;3.00;;;;;;;11.35;100.00;100537.50;7369060;19;20543;-44
2023/07/04 04:50:09;;;;;;;6.93;2.60;;;;;;;11.44;100.00;100532.66;7393286;19;20410;-43
2023/07/04 04:52:41;;;;;;;14.13;4.07;;;;;;;11.50;100.00;100544.03;7367302;19;20419;-42
2023/07/04 04:55:11;;;;;;;10.37;3.47;;;;;;;11.60;100.00;100540.94;7392946;19;20438;-43
2023/07/04 04:57:44;;;;;;;10.47;3.43;;;;;;;11.64;100.00;100560.88;7367960;19;20419;-43
2023/07/04 05:00:16;;;;;;;9.20;3.10;;;;;;;11.68;100.00;100567.91;7392418;19;20762;-42
2023/07/04 05:02:46;;;;;;;6.77;3.00;;;;;;;11.77;100.00;100581.97;7367681;19;20414;-41
2023/07/04 05:05:16;;;;;;;8.43;3.37;;;;;;;11.82;100.00;100583.00;7392695;19;20803;-43
2023/07/04 05:07:46;;;;;;;8.90;2.87;;;;;;;11.83;100.00;100595.09;7366536;19;20975;-42
2023/07/04 05:10:16;;;;;;;12.73;3.23;;;;;;;11.87;100.00;100591.81;7394069;19;21345;-44
2023/07/04 05:12:48;;;;;;;4.90;2.03;;;;;;;11.93;100.00;100598.88;7363942;19;20515;-41
2023/07/04 05:15:18;;;;;;;9.40;2.53;;;;;;;11.99;100.00;100612.91;7391775;19;20454;-43
2023/07/04 05:17:48;;;;;;;8.77;2.70;;;;;;;12.00;100.00;100616.38;7367066;19;20418;-44
2023/07/04 05:20:23;;;;;;;6.50;2.43;;;;;;;12.11;100.00;100629.69;7390293;19;20410;-43
2023/07/04 05:22:56;;;;;;;9.17;2.67;;;;;;;12.17;100.00;100644.53;7366582;19;20802;-43
2023/07/04 05:25:26;;;;;;;6.63;2.60;;;;;;;12.23;100.00;100661.16;7391179;19;20829;-43
2023/07/04 05:27:58;;;;;;;6.33;2.20;;;;;;;12.25;100.00;100659.47;7365096;19;20408;-43
2023/07/04 05:30:28;;;;;;;9.90;2.50;;;;;;;12.34;100.00;100683.88;7391203;19;20445;-42
2023/07/04 05:32:57;;;;;;;12.63;2.57;;;;;;;12.39;100.00;100685.81;7366117;19;20405;-43
2023/07/04 05:35:27;;;;;;;8.07;2.40;;;;;;;12.49;100.00;100696.47;7391637;19;20852;-43
2023/07/04 05:37:57;;;;;;;7.90;2.00;;;;;;;12.51;100.00;100687.91;7366118;19;20392;-44
2023/07/04 05:40:26;;;;;;;7.30;3.07;;;;;;;12.49;100.00;100714.56;7390328;19;20833;-42
2023/07/04 05:42:58;;;;;;;8.30;2.40;;;;;;;12.56;100.00;100712.25;7365271;19;20470;-43
2023/07/04 05:45:28;;;;;;;8.20;2.33;;;;;;;12.63;100.00;100720.22;7388891;19;20461;-43
2023/07/04 05:48:00;;;;;;;11.07;2.70;;;;;;;12.65;100.00;100728.91;7366444;19;20819;-43
2023/07/04 05:50:30;;;;;;;15.63;2.80;;;;;;;12.74;100.00;100724.03;7390189;19;21004;-39
2023/07/04 05:52:59;;;;;;;9.17;2.87;;;;;;;12.76;100.00;100727.53;7367681;19;20541;-43
2023/07/04 05:55:29;;;;;;;6.77;2.30;;;;;;;12.81;100.00;100733.75;7391197;19;20456;-43
2023/07/04 05:58:04;;;;;;;5.20;2.40;;;;;;;12.83;100.00;100737.25;7365833;19;20441;-43
2023/07/04 06:00:33;;;;;;;8.00;2.70;;;;;;;12.94;100.00;100749.69;7392451;19;20957;-43
2023/07/04 06:03:03;;;;;;;10.03;3.27;;;;;;;12.99;100.00;100753.31;7364591;19;20456;-43
2023/07/04 06:05:33;;;;;;;6.63;2.07;;;;;;;13.10;100.00;100759.72;7383308;19;20969;-43
2023/07/04 06:08:03;;;;;;;18.03;6.20;;;;;;;13.21;100.00;100761.72;7364942;19;20437;-44
2023/07/04 06:10:33;;;;;;;19.23;4.97;;;;;;;13.19;100.00;100768.59;7389431;19;20506;-43
2023/07/04 06:13:05;;;;;;;13.90;5.40;;;;;;;13.26;100.00;100782.59;7363799;19;20497;-44
2023/07/04 06:15:42;;;;;;;16.13;5.23;;;;;;;13.30;100.00;100777.56;7388995;19;20859;-39
2023/07/04 06:18:11;;;;;;;6.90;2.33;;;;;;;13.37;100.00;100792.47;7362417;19;20472;-45
2023/07/04 06:20:41;;;;;;;7.37;2.50;;;;;;;13.35;100.00;100786.34;7389187;19;20970;-42
2023/07/04 06:23:11;;;;;;;11.00;3.40;;;;;;;13.50;100.00;100788.56;7361432;19;20437;-42
2023/07/04 06:25:40;;;;;;;8.10;2.67;;;;;;;13.50;100.00;100803.25;7389491;19;20491;-41
2023/07/04 06:28:13;;;;;;;9.23;3.20;;;;;;;13.67;100.00;100810.63;7363050;19;20398;-42
2023/07/04 06:30:42;;;;;;;16.77;3.90;;;;;;;13.77;100.00;100802.31;7387484;19;20440;-42
2023/07/04 06:33:12;;;;;;;13.73;4.90;;;;;;;13.61;100.00;100812.25;7369453;19;20430;-42
2023/07/04 06:35:45;;;;;;;13.10;4.00;;;;;;;13.79;100.00;100838.66;7395275;19;21058;-42
2023/07/04 06:38:15;;;;;;;14.43;5.67;;;;;;;13.77;100.00;100843.78;7371213;19;20447;-43
2023/07/04 06:40:44;;;;;;;9.50;3.90;;;;;;;13.97;100.00;100846.09;7397616;19;20411;-43
2023/07/04 06:43:16;;;;;;;7.80;3.37;;;;;;;14.09;100.00;100851.63;7366813;19;22271;-42
2023/07/04 06:45:46;;;;;;;11.57;4.60;;;;;;;14.00;100.00;100859.16;7394636;19;20971;-42
2023/07/04 06:48:16;;;;;;;7.53;2.80;;;;;;;14.11;100.00;100870.72;7367764;19;20436;-44
2023/07/04 06:50:45;;;;;;;10.23;3.40;;;;;;;14.03;100.00;100878.28;7395701;19;21010;-44
2023/07/04 06:53:17;;;;;;;8.50;2.63;;;;;;;14.11;100.00;100885.41;7368777;19;20560;-43
2023/07/04 06:55:47;;;;;;;9.90;2.90;;;;;;;14.33;100.00;100892.09;7395946;19;20459;-44
2023/07/04 06:58:20;;;;;;;11.60;3.57;;;;;;;14.33;100.00;100889.50;7368170;19;20526;-44
2023/07/04 07:00:49;;;;;;;7.80;2.70;;;;;;;14.41;100.00;100911.38;7394804;19;20955;-42
2023/07/04 07:03:21;;;;;;;10.53;2.10;;;;;;;14.35;100.00;100926.75;7366894;19;20499;-43
2023/07/04 07:05:50;;;;;;;11.90;3.70;;;;;;;14.62;100.00;100909.34;7392880;19;20831;-43
2023/07/04 07:08:20;;;;;;;7.80;2.47;;;;;;;14.87;100.00;100908.28;7367925;19;20523;-44
2023/07/04 07:10:55;;;;;;;6.00;1.97;;;;;;;14.79;100.00;100922.81;7397507;19;20413;-44
2023/07/04 07:13:28;;;;;;;6.47;2.30;;;;;;;14.85;100.00;100936.84;7365317;19;20463;-41
2023/07/04 07:16:08;;;;;;;8.30;1.93;;;;;;;14.93;100.00;100937.03;7395013;19;20457;-43
2023/07/04 07:18:38;;;;;;;4.03;2.03;;;;;;;14.60;100.00;100943.03;7363773;19;20447;-41
2023/07/04 07:21:12;;;;;;;11.60;2.80;;;;;;;14.77;100.00;100946.13;7392085;19;20938;-41
2023/07/04 07:23:42;;;;;;;11.90;4.30;;;;;;;14.75;100.00;100952.13;7367105;19;20458;-43
2023/07/04 07:26:14;;;;;;;19.60;8.20;;;;;;;14.77;100.00;100948.72;7394938;19;20510;-43
2023/07/04 07:28:46;;;;;;;7.07;2.97;;;;;;;14.92;100.00;100948.28;7367208;19;20439;-43
2023/07/04 07:31:19;;;;;;;7.00;2.43;;;;;;;14.66;100.00;100953.59;7395469;19;20495;-40
2023/07/04 07:33:51;;;;;;;10.27;3.50;;;;;;;14.66;100.00;100966.59;7368935;19;20430;-43
2023/07/04 07:36:22;;;;;;;9.77;3.17;;;;;;;14.71;100.00;100962.41;7395849;19;21142;-42
2023/07/04 07:38:52;;;;;;;7.50;3.07;;;;;;;14.82;100.00;100954.94;7366342;19;20475;-43
2023/07/04 07:41:24;;;;;;;12.93;4.23;;;;;;;14.93;100.00;100968.22;7394671;19;20475;-41
2023/07/04 07:43:56;;;;;;;7.00;3.40;;;;;;;14.90;100.00;100959.44;7366394;19;20433;-42
2023/07/04 07:46:26;;;;;;;6.40;3.30;;;;;;;14.78;100.00;100965.19;7393634;19;20455;-43
2023/07/04 07:48:56;;;;;;;12.43;4.40;;;;;;;14.92;100.00;100970.78;7367292;19;21267;-43
2023/07/04 07:51:25;;;;;;;5.20;2.70;;;;;;;14.83;100.00;100967.06;7395722;19;20403;-43
2023/07/04 07:53:56;;;;;;;15.07;5.50;;;;;;;14.61;100.00;100968.16;7363780;19;20419;-43
2023/07/04 07:56:28;;;;;;;4.73;2.80;;;;;;;14.76;100.00;100974.69;7394555;19;20446;-44
2023/07/04 07:59:00;;;;;;;8.40;4.33;;;;;;;14.97;100.00;100970.06;7367829;19;20499;-43
2023/07/04 08:01:33;;;;;;;12.53;3.97;;;;;;;15.12;100.00;100973.91;7392912;19;20475;-43
2023/07/04 08:04:03;;;;;;;9.80;4.37;;;;;;;15.24;100.00;100974.22;7365472;19;20451;-43
2023/07/04 08:06:37;;;;;;;7.70;3.00;;;;;;;15.31;100.00;100969.19;7392852;19;21035;-43
2023/07/04 08:09:09;;;;;;;12.90;3.80;;;;;;;15.10;100.00;100975.59;7368205;19;20438;-42
2023/07/04 08:11:39;;;;;;;11.47;2.47;;;;;;;15.23;100.00;100962.06;7392269;19;20486;-42
2023/07/04 08:14:12;;;;;;;6.60;2.70;;;;;;;15.24;100.00;100955.16;7367040;19;20459;-42
2023/07/04 08:16:46;;;;;;;11.23;3.20;;;;;;;14.90;100.00;100952.56;7390952;19;20438;-43
2023/07/04 08:19:16;;;;;;;16.77;4.60;;;;;;;14.76;100.00;100967.75;7367196;19;20436;-43
2023/07/04 08:21:46;;;;;;;12.90;3.40;;;;;;;14.75;100.00;100968.59;7394355;19;20404;-42
2023/07/04 08:24:17;;;;;;;20.13;6.80;;;;;;;15.06;100.00;100978.94;7367777;19;20461;-44
2023/07/04 08:26:49;;;;;;;5.17;2.43;;;;;;;15.25;100.00;100969.91;7393137;19;20459;-43
2023/07/04 08:29:21;;;;;;;17.33;4.87;;;;;;;15.12;100.00;100969.59;7368234;19;20427;-43
2023/07/04 08:31:50;;;;;;;10.23;3.57;;;;;;;15.33;100.00;100978.78;7393640;19;20407;-42
2023/07/04 08:34:20;;;;;;;12.17;3.97;;;;;;;15.46;100.00;100971.28;7368080;19;20431;-43
2023/07/04 08:36:50;;;;;;;10.00;4.53;;;;;;;15.24;100.00;100969.03;7392551;19;20526;-42
2023/07/04 08:39:19;;;;;;;15.63;6.30;;;;;;;15.17;100.00;100964.50;7368796;19;20443;-43
2023/07/04 08:41:57;;;;;;;10.30;4.23;;;;;;;15.29;100.00;100968.28;7393588;19;20491;-42
2023/07/04 08:44:35;;;;;;;12.83;5.53;;;;;;;15.23;100.00;100967.28;7367992;19;20476;-43
2023/07/04 08:47:05;;;;;;;6.97;2.20;;;;;;;15.41;100.00;100957.28;7368555;19;20443;-43
2023/07/04 08:49:38;;;;;;;12.70;4.83;;;;;;;15.47;100.00;100940.13;7390655;19;20407;-42
2023/07/04 08:52:12;;;;;;;10.93;2.30;;;;;;;15.64;100.00;100931.88;7369100;19;20781;-44
2023/07/04 08:54:42;;;;;;;4.87;2.17;;;;;;;15.76;100.00;100955.56;7387014;19;20423;-44
2023/07/04 08:57:23;;;;;;;16.30;4.27;;;;;;;15.73;100.00;100925.97;7368600;19;20448;-43
2023/07/04 08:59:59;;;;;;;5.60;2.30;;;;;;;15.60;100.00;100930.03;7391269;19;20419;-43
2023/07/04 09:03:02;;;;;;;14.33;3.70;;;;;;;15.97;100.00;100930.91;7366638;19;20443;-44
2023/07/04 09:05:37;;;;;;;4.67;2.10;;;;;;;16.04;100.00;100918.91;7390530;19;20446;-42
2023/07/04 09:08:13;;;;;;;14.10;4.90;;;;;;;15.75;100.00;100930.38;7367660;19;20419;-43
2023/07/04 09:10:44;;;;;;;10.77;1.60;;;;;;;15.67;100.00;100929.34;7392910;19;20410;-44
2023/07/04 09:13:18;;;;;;;9.53;3.23;;;;;;;15.57;100.00;100914.34;7365930;19;20438;-42
2023/07/04 09:15:50;;;;;;;10.13;4.37;;;;;;;15.36;100.00;100926.00;7391619;19;20447;-43
2023/07/04 09:18:33;;;;;;;11.43;3.53;;;;;;;15.30;100.00;100929.34;7365262;19;20419;-42
2023/07/04 09:21:09;;;;;;;4.70;1.83;;;;;;;15.27;100.00;100952.63;7391939;19;20434;-44
2023/07/04 09:23:39;;;;;;;8.87;3.00;;;;;;;15.23;100.00;100945.63;7363290;19;21054;-42
2023/07/04 09:26:10;;;;;;;6.73;1.83;;;;;;;15.15;100.00;100952.31;7391030;19;20450;-42
2023/07/04 09:28:44;;;;;;;5.20;1.60;;;;;;;15.21;100.00;100962.88;7365596;19;20466;-43
2023/07/04 09:31:20;;;;;;;5.70;1.83;;;;;;;15.34;100.00;100961.47;7391310;19;20444;-43
2023/07/04 09:33:51;;;;;;;7.23;2.03;;;;;;;15.57;100.00;100945.53;7362802;19;21180;-42
2023/07/04 09:36:23;;;;;;;4.60;1.97;;;;;;;15.59;100.00;100936.09;7392815;19;20519;-44
2023/07/04 09:38:54;;;;;;;4.77;1.93;;;;;;;15.57;100.00;100933.44;7365474;19;20450;-44
2023/07/04 09:41:26;;;;;;;5.30;2.00;;;;;;;15.64;100.00;100922.34;7391140;19;20400;-43
2023/07/04 09:43:57;;;;;;;6.10;2.40;;;;;;;15.86;100.00;100922.84;7362843;19;20445;-42
2023/07/04 09:46:31;;;;;;;4.20;1.77;;;;;;;15.80;100.00;100907.09;7390294;19;20473;-44
2023/07/04 09:49:23;;;;;;;4.17;1.53;;;;;;;15.89;100.00;100891.69;7362981;19;20531;-43
2023/07/04 09:52:07;;;;;;;4.07;1.43;;;;;;;16.23;100.00;100860.31;7391184;19;20424;-42
2023/07/04 09:54:38;;;;;;;6.50;1.60;;;;;;;16.44;100.00;100843.34;7368172;19;20486;-44
2023/07/04 09:57:22;;;;;;;4.00;1.40;;;;;;;16.46;100.00;100833.88;7368438;19;20412;-44
2023/07/04 09:59:53;;;;;;;4.83;2.00;;;;;;;16.47;100.00;100820.84;7391296;19;20419;-43
2023/07/04 10:02:34;;;;;;;3.23;1.50;;;;;;;16.64;100.00;100795.97;7363115;19;20958;-43
2023/07/04 10:05:04;;;;;;;3.40;1.17;;;;;;;16.39;100.00;100746.06;7389063;19;20445;-46
2023/07/04 10:07:34;;;;;;;3.13;1.20;;;;;;;16.26;100.00;100706.78;7372080;19;20749;-43
2023/07/04 10:10:05;;;;;;;4.40;1.43;;;;;;;16.69;100.00;100683.19;7395132;19;20787;-44
2023/07/04 10:12:43;;;;;;;4.27;1.30;;;;;;;16.85;100.00;100667.78;7370626;19;20412;-43
2023/07/04 10:15:13;;;;;;;3.50;1.20;;;;;;;17.00;100.00;100639.34;7397518;19;20456;-43
2023/07/04 10:17:46;;;;;;;4.70;1.47;;;;;;;16.91;100.00;100583.63;7369821;19;20494;-43
2023/07/04 10:20:16;;;;;;;10.10;3.33;;;;;;;16.99;100.00;100551.56;7400379;19;20414;-42
2023/07/04 10:22:50;;;;;;;4.43;1.17;;;;;;;17.35;100.00;100539.00;7371298;19;20749;-45
2023/07/04 10:25:25;;;;;;;2.37;0.93;;;;;;;16.87;100.00;100466.34;7395508;19;20500;-44
2023/07/04 10:27:57;;;;;;;6.97;1.87;;;;;;;17.17;100.00;100439.75;7370090;19;20422;-44
2023/07/04 10:30:30;;;;;;;3.67;1.60;;;;;;;17.22;100.00;100406.78;7399187;19;20414;-43
2023/07/04 10:33:05;;;;;;;5.10;0.70;;;;;;;17.18;100.00;100385.00;7368687;19;20520;-44
2023/07/04 10:35:36;;;;;;;6.63;1.27;;;;;;;17.09;100.00;100362.38;7396669;19;20474;-43
2023/07/04 10:38:07;;;;;;;7.97;1.10;;;;;;;17.33;100.00;100362.53;7368339;19;21095;-44
2023/07/04 10:40:38;;;;;;;11.67;3.00;;;;;;;17.28;100.00;100354.69;7392517;19;20404;-43
2023/07/04 10:43:13;;;;;;;3.37;0.80;;;;;;;17.64;100.00;100358.41;7364463;19;20418;-44
2023/07/04 10:45:44;;;;;;;3.17;0.80;;;;;;;17.13;100.00;100360.66;7392638;19;20430;-43
2023/07/04 10:48:35;;;;;;;5.73;1.37;;;;;;;16.99;100.00;100369.16;7367347;19;20438;-43
2023/07/04 10:51:08;;;;;;;4.70;1.83;;;;;;;16.84;100.00;100354.28;7396681;19;20410;-42
2023/07/04 10:53:38;;;;;;;6.53;1.77;;;;;;;16.94;100.00;100360.47;7371026;19;20423;-43
2023/07/04 10:56:13;;;;;;;4.00;1.33;;;;;;;17.58;100.00;100376.63;7397256;19;20859;-42
2023/07/04 10:58:47;;;;;;;6.30;1.90;;;;;;;17.58;100.00;100374.00;7370130;19;20803;-42
2023/07/04 11:01:21;;;;;;;3.37;1.10;;;;;;;17.13;100.00;100402.34;7397086;19;20486;-43
2023/07/04 11:03:57;;;;;;;5.80;2.00;;;;;;;16.51;100.00;100407.75;7369473;19;21024;-43
2023/07/04 11:06:30;;;;;;;5.10;1.70;;;;;;;15.98;100.00;100440.91;7395301;19;20442;-43
2023/07/04 11:09:00;;;;;;;11.90;4.00;;;;;;;15.66;100.00;100415.28;7372088;19;20439;-44
2023/07/04 11:11:32;;;;;;;3.17;1.07;;;;;;;15.36;100.00;100403.53;7395189;19;20411;-44
2023/07/04 11:14:06;;;;;;;6.33;2.80;;;;;;;15.23;100.00;100426.72;7366736;19;20458;-44
2023/07/04 11:16:39;;;;;;;4.33;1.43;;;;;;;14.81;100.00;100412.09;7393118;19;21276;-40
2023/07/04 11:19:19;;;;;;;4.37;1.50;;;;;;;14.69;100.00;100436.09;7370408;19;20974;-44
2023/07/04 11:22:13;;;;;;;6.13;1.80;;;;;;;14.56;100.00;100447.97;7396014;19;20408;-44
2023/07/04 11:24:46;;;;;;;2.70;0.80;;;;;;;14.47;100.00;100465.91;7372533;19;20808;-43
2023/07/04 11:27:18;;;;;;;4.67;1.70;;;;;;;14.39;100.00;100492.59;7372557;19;20412;-43
2023/07/04 11:29:54;;;;;;;4.20;1.73;;;;;;;14.44;100.00;100475.41;7395003;19;20410;-43
2023/07/04 11:32:27;;;;;;;2.50;1.00;;;;;;;14.37;100.00;100374.03;7369458;19;20423;-41
2023/07/04 11:35:03;;;;;;;2.20;0.80;;;;;;;14.60;100.00;100433.31;7393984;19;20414;-43